Time;durP1;ratioP1;P1;durP2;ratioP2;P2;SDS_P1;SDS_P2;PMS_P1;PMS_P2;Temp;Humidity;BMP_temperature;BMP_pressure;BME280_temperature;BME280_humidity;BME280_pressure;Samples;Min_cycle;Max_cycle;Signal;HPM_P1;HPM_P2
2021/05/04 00:01:56;;;;;;;4.78;3.30;;;7.50;55.20;;;;;;5054484;28;20093;-66
2021/05/04 00:04:21;;;;;;;4.30;3.13;;;7.50;55.50;;;;;;5053414;28;20036;-67
2021/05/04 00:06:47;;;;;;;4.55;3.20;;;7.50;55.20;;;;;;5054114;28;20441;-66
2021/05/04 00:09:13;;;;;;;6.30;3.55;;;7.60;56.30;;;;;;5053165;28;20029;-66
2021/05/04 00:11:38;;;;;;;4.70;3.10;;;7.70;54.70;;;;;;5054101;28;20115;-66
2021/05/04 00:14:04;;;;;;;5.95;3.17;;;7.70;54.50;;;;;;5053641;28;20071;-66
2021/05/04 00:16:29;;;;;;;6.45;3.15;;;7.70;54.30;;;;;;5054427;28;20548;-65
2021/05/04 00:18:55;;;;;;;4.40;3.30;;;7.70;54.40;;;;;;5054249;28;20025;-66
2021/05/04 00:21:21;;;;;;;6.38;4.15;;;7.70;54.80;;;;;;5054142;28;20048;-67
2021/05/04 00:23:46;;;;;;;6.63;3.40;;;7.60;54.80;;;;;;5054143;28;20025;-65
2021/05/04 00:26:12;;;;;;;7.03;3.90;;;7.60;55.50;;;;;;5053824;28;20037;-65
2021/05/04 00:28:38;;;;;;;5.50;3.25;;;7.60;54.90;;;;;;5054278;28;20466;-64
2021/05/04 00:31:04;;;;;;;5.00;3.25;;;7.50;55.70;;;;;;5054206;28;20402;-64
2021/05/04 00:33:29;;;;;;;7.53;4.10;;;7.50;56.70;;;;;;5054329;28;20021;-65
2021/05/04 00:35:58;;;;;;;5.88;3.50;;;7.30;56.30;;;;;;5053897;28;20550;-65
2021/05/04 00:38:24;;;;;;;5.82;3.63;;;7.30;56.70;;;;;;5053526;28;20033;-65
2021/05/04 00:40:50;;;;;;;6.72;3.60;;;7.20;56.90;;;;;;5053997;28;20140;-65
2021/05/04 00:43:23;;;;;;;5.75;3.88;;;7.20;58.20;;;;;;5053794;28;20017;-66
2021/05/04 00:45:51;;;;;;;7.95;4.70;;;7.20;58.60;;;;;;5052426;28;20029;-65
2021/05/04 00:48:17;;;;;;;6.15;3.95;;;7.20;58.90;;;;;;5053904;28;20024;-66
2021/05/04 00:50:42;;;;;;;4.90;3.65;;;7.20;57.60;;;;;;5052475;28;20025;-66
2021/05/04 00:53:08;;;;;;;6.65;3.40;;;7.30;57.90;;;;;;5053511;28;20120;-66
2021/05/04 00:55:33;;;;;;;5.97;3.70;;;7.30;56.50;;;;;;5052498;28;20367;-66
2021/05/04 00:58:03;;;;;;;5.18;4.03;;;7.30;56.40;;;;;;5053044;28;20033;-65
2021/05/04 01:00:29;;;;;;;6.10;3.67;;;7.30;56.10;;;;;;5053378;28;20025;-65
2021/05/04 01:02:57;;;;;;;4.28;3.30;;;7.30;56.60;;;;;;5052153;28;20029;-66
2021/05/04 01:05:22;;;;;;;4.18;3.05;;;7.20;56.40;;;;;;5053291;28;20048;-66
2021/05/04 01:07:48;;;;;;;6.65;3.45;;;7.20;56.90;;;;;;5053029;28;20025;-66
2021/05/04 01:10:14;;;;;;;5.72;4.00;;;7.10;56.80;;;;;;5051902;28;20078;-66
2021/05/04 01:12:40;;;;;;;7.40;3.78;;;7.10;57.50;;;;;;5053209;28;20033;-66
2021/05/04 01:15:06;;;;;;;5.55;4.18;;;7.00;58.40;;;;;;5053011;28;20517;-65
2021/05/04 01:17:32;;;;;;;5.25;4.10;;;7.10;57.30;;;;;;5051563;28;20029;-66
2021/05/04 01:19:57;;;;;;;7.38;4.10;;;7.10;57.00;;;;;;5053147;28;20111;-65
2021/05/04 01:22:23;;;;;;;4.10;3.63;;;7.10;56.90;;;;;;5053186;28;20025;-66
2021/05/04 01:24:48;;;;;;;5.72;3.70;;;7.30;56.40;;;;;;5052198;28;20475;-65
2021/05/04 01:27:15;;;;;;;7.47;4.47;;;7.30;56.40;;;;;;5052873;28;20029;-65
2021/05/04 01:29:41;;;;;;;8.95;5.40;;;7.30;57.00;;;;;;5052781;28;20025;-66
2021/05/04 01:32:08;;;;;;;5.70;4.70;;;7.20;56.50;;;;;;5053344;28;20051;-66
2021/05/04 01:34:34;;;;;;;5.95;4.13;;;7.20;56.90;;;;;;5053154;28;20112;-65
2021/05/04 01:37:00;;;;;;;5.40;4.28;;;7.20;56.00;;;;;;5052416;28;20035;-66
2021/05/04 01:39:52;;;;;;;8.00;5.32;;;7.30;55.60;;;;;;5073399;23;20044;-67
2021/05/04 01:42:21;;;;;;;5.13;4.03;;;7.40;56.10;;;;;;5063815;28;20033;-66
2021/05/04 01:44:47;;;;;;;5.25;3.80;;;7.40;55.40;;;;;;5052307;28;20517;-67
2021/05/04 01:47:13;;;;;;;8.93;4.65;;;7.40;55.10;;;;;;5051937;28;20028;-67
2021/05/04 01:49:40;;;;;;;8.40;5.03;;;7.30;55.40;;;;;;5050860;28;20032;-67
2021/05/04 01:52:07;;;;;;;6.53;4.43;;;7.30;55.30;;;;;;5050866;28;20035;-67
2021/05/04 01:54:33;;;;;;;7.20;4.97;;;7.20;56.30;;;;;;5052048;28;20028;-67
2021/05/04 01:56:59;;;;;;;10.45;5.80;;;7.20;55.90;;;;;;5050489;28;20029;-66
2021/05/04 01:59:26;;;;;;;5.93;3.70;;;7.20;56.70;;;;;;5050866;28;20071;-67
2021/05/04 02:01:53;;;;;;;9.30;4.80;;;7.30;55.90;;;;;;5052716;28;20036;-66
2021/05/04 02:04:18;;;;;;;5.72;4.28;;;7.40;56.10;;;;;;5052106;28;20372;-66
2021/05/04 02:06:44;;;;;;;5.57;4.35;;;7.40;55.20;;;;;;5051498;28;20079;-67
2021/05/04 02:09:11;;;;;;;7.47;4.25;;;7.50;55.00;;;;;;5050623;28;20032;-67
2021/05/04 02:11:38;;;;;;;10.63;6.57;;;7.40;55.20;;;;;;5052066;28;20068;-67
2021/05/04 02:14:07;;;;;;;6.28;4.55;;;7.50;57.10;;;;;;5051829;28;20597;-68
2021/05/04 02:16:33;;;;;;;6.85;5.07;;;7.40;55.30;;;;;;5051784;28;20533;-68
2021/05/04 02:18:59;;;;;;;11.77;5.43;;;7.40;56.00;;;;;;5051934;28;20107;-67
2021/05/04 02:21:27;;;;;;;8.30;4.65;;;7.40;56.60;;;;;;5051804;28;20075;-65
2021/05/04 02:23:52;;;;;;;10.73;5.72;;;7.50;55.60;;;;;;5051839;28;20159;-66
2021/05/04 02:26:18;;;;;;;5.18;3.90;;;7.40;57.40;;;;;;5051541;28;20033;-67
2021/05/04 02:28:45;;;;;;;8.75;4.47;;;7.40;55.30;;;;;;5051567;28;20037;-67
2021/05/04 02:31:12;;;;;;;8.70;4.82;;;7.60;55.80;;;;;;5051688;28;20533;-66
2021/05/04 02:33:39;;;;;;;8.05;5.25;;;7.60;56.10;;;;;;5051619;28;20037;-68
2021/05/04 02:36:05;;;;;;;5.90;4.35;;;7.60;57.00;;;;;;5051288;28;20044;-67
2021/05/04 02:38:31;;;;;;;10.05;6.22;;;7.60;56.00;;;;;;5051426;28;20033;-67
2021/05/04 02:40:57;;;;;;;9.02;4.97;;;7.70;57.40;;;;;;5051700;28;20013;-67
2021/05/04 02:43:24;;;;;;;9.63;5.57;;;7.80;56.30;;;;;;5051562;28;20025;-67
2021/05/04 02:45:49;;;;;;;6.75;4.50;;;8.00;56.40;;;;;;5051532;28;20021;-67
2021/05/04 02:48:15;;;;;;;8.95;5.90;;;8.20;55.70;;;;;;5051144;28;20052;-67
2021/05/04 02:50:41;;;;;;;7.68;5.20;;;8.40;55.50;;;;;;5051338;28;20386;-67
2021/05/04 02:53:09;;;;;;;9.48;5.55;;;8.50;55.20;;;;;;5051520;28;20372;-67
2021/05/04 02:55:34;;;;;;;10.68;5.80;;;8.60;54.70;;;;;;5051480;28;20466;-68
2021/05/04 02:58:00;;;;;;;10.65;5.35;;;8.70;55.40;;;;;;5049912;28;20051;-67
2021/05/04 03:00:25;;;;;;;9.30;5.40;;;8.70;55.10;;;;;;5051272;28;20483;-67
2021/05/04 03:02:51;;;;;;;7.57;5.32;;;8.90;54.70;;;;;;5049964;28;20033;-67
2021/05/04 03:05:16;;;;;;;11.25;5.88;;;9.00;54.40;;;;;;5051370;28;20025;-67
2021/05/04 03:07:45;;;;;;;8.27;4.93;;;9.00;53.90;;;;;;5051111;28;20044;-67
2021/05/04 03:10:11;;;;;;;8.77;5.18;;;9.10;52.50;;;;;;5051367;28;20041;-67
2021/05/04 03:12:37;;;;;;;8.35;4.53;;;9.20;53.00;;;;;;5050105;28;20029;-69
2021/05/04 03:15:03;;;;;;;10.10;5.60;;;9.20;52.40;;;;;;5051475;28;20032;-66
2021/05/04 03:17:28;;;;;;;17.45;10.05;;;9.30;53.40;;;;;;5050797;28;20510;-67
2021/05/04 03:19:54;;;;;;;8.57;5.18;;;9.20;53.40;;;;;;5051338;28;20033;-67
2021/05/04 03:22:19;;;;;;;7.72;4.78;;;9.30;53.50;;;;;;5051138;28;20031;-66
2021/05/04 03:24:46;;;;;;;6.32;4.80;;;9.30;53.30;;;;;;5051294;28;20033;-67
2021/05/04 03:27:11;;;;;;;8.88;5.88;;;9.40;52.30;;;;;;5050957;28;20024;-68
2021/05/04 03:29:37;;;;;;;10.45;5.68;;;9.40;53.60;;;;;;5051117;28;20483;-67
2021/05/04 03:32:03;;;;;;;209.38;109.57;;;9.30;54.30;;;;;;5051088;28;20025;-66
2021/05/04 03:34:28;;;;;;;11.20;6.53;;;9.30;54.30;;;;;;5051067;28;20029;-68
2021/05/04 03:36:54;;;;;;;10.68;6.25;;;9.30;55.40;;;;;;5050944;28;20357;-67
2021/05/04 03:39:19;;;;;;;9.57;6.13;;;9.30;53.80;;;;;;5051028;28;20033;-67
2021/05/04 03:41:45;;;;;;;8.43;5.65;;;9.30;54.90;;;;;;5051398;28;20029;-67
2021/05/04 03:44:11;;;;;;;11.00;6.60;;;9.20;53.60;;;;;;5050927;28;20022;-68
2021/05/04 03:46:36;;;;;;;9.23;5.80;;;9.20;55.20;;;;;;5051114;28;20060;-68
2021/05/04 03:49:04;;;;;;;7.63;5.35;;;9.10;54.60;;;;;;5054595;28;20029;-67
2021/05/04 03:51:30;;;;;;;8.55;6.05;;;9.10;54.00;;;;;;5054932;28;20024;-68
2021/05/04 03:53:55;;;;;;;9.38;5.53;;;9.10;55.20;;;;;;5057951;28;20399;-67
2021/05/04 03:56:21;;;;;;;11.38;6.88;;;9.10;54.30;;;;;;5056762;28;20120;-67
2021/05/04 03:58:47;;;;;;;9.68;6.53;;;9.20;56.50;;;;;;5055595;28;20025;-69
2021/05/04 04:01:12;;;;;;;8.00;5.07;;;9.20;56.50;;;;;;5054441;28;20021;-67
2021/05/04 04:03:40;;;;;;;8.43;6.40;;;9.30;54.00;;;;;;5053058;28;20113;-67
2021/05/04 04:06:06;;;;;;;9.18;6.28;;;9.30;55.30;;;;;;5054180;28;20021;-68
2021/05/04 04:08:31;;;;;;;11.35;6.03;;;9.50;56.00;;;;;;5054361;28;20604;-67
2021/05/04 04:10:57;;;;;;;9.27;6.47;;;9.60;55.40;;;;;;5054331;28;20029;-67
2021/05/04 04:13:22;;;;;;;9.30;6.00;;;9.80;56.70;;;;;;5054093;28;20390;-66
2021/05/04 04:15:48;;;;;;;9.38;6.47;;;9.90;56.20;;;;;;5053944;28;20070;-68
2021/05/04 04:18:14;;;;;;;11.13;6.05;;;10.10;55.30;;;;;;5052630;28;20045;-68
2021/05/04 04:20:39;;;;;;;10.98;6.32;;;10.20;55.50;;;;;;5053090;28;20083;-67
2021/05/04 04:23:05;;;;;;;11.32;6.80;;;10.40;55.20;;;;;;5052884;28;20394;-67
2021/05/04 04:25:30;;;;;;;10.27;5.95;;;10.50;54.00;;;;;;5054003;28;20387;-68
2021/05/04 04:27:58;;;;;;;8.70;5.63;;;10.70;53.00;;;;;;5052315;28;20074;-68
2021/05/04 04:30:24;;;;;;;9.18;6.68;;;10.80;52.10;;;;;;5053599;28;20092;-68
2021/05/04 04:32:51;;;;;;;9.77;6.32;;;10.90;53.40;;;;;;5054029;28;20106;-68
2021/05/04 04:35:20;;;;;;;9.63;6.45;;;10.90;52.40;;;;;;5053567;28;20020;-68
2021/05/04 04:37:47;;;;;;;7.97;6.15;;;11.00;52.60;;;;;;5052088;28;20037;-68
2021/05/04 04:40:16;;;;;;;9.35;6.70;;;11.00;51.40;;;;;;5052374;28;20044;-68
2021/05/04 04:42:41;;;;;;;10.10;7.10;;;11.10;52.10;;;;;;5053548;28;20055;-68
2021/05/04 04:45:07;;;;;;;8.63;6.18;;;11.20;52.40;;;;;;5051664;28;20029;-68
2021/05/04 04:47:33;;;;;;;10.75;6.60;;;11.20;52.00;;;;;;5053129;28;20036;-67
2021/05/04 04:49:58;;;;;;;8.27;5.82;;;11.20;52.40;;;;;;5051446;28;20029;-68
2021/05/04 04:52:24;;;;;;;9.25;6.15;;;11.30;51.20;;;;;;5052014;28;20024;-67
2021/05/04 04:54:49;;;;;;;7.78;5.90;;;11.40;51.00;;;;;;5051069;28;20371;-68
2021/05/04 04:57:15;;;;;;;9.57;6.65;;;11.50;51.40;;;;;;5071857;28;20028;-66
2021/05/04 04:59:41;;;;;;;10.18;6.45;;;11.60;51.60;;;;;;5071700;28;20024;-66
2021/05/04 05:02:06;;;;;;;10.10;6.82;;;11.60;50.80;;;;;;5070800;28;20025;-67
2021/05/04 05:04:32;;;;;;;8.65;5.80;;;11.60;50.30;;;;;;5070043;28;20021;-67
2021/05/04 05:06:57;;;;;;;8.82;6.10;;;11.60;49.60;;;;;;5070876;28;20021;-68
2021/05/04 05:09:23;;;;;;;10.02;6.00;;;11.70;50.00;;;;;;5071032;28;20086;-68
2021/05/04 05:11:48;;;;;;;9.30;6.00;;;11.80;51.20;;;;;;5069686;28;20031;-67
2021/05/04 05:14:14;;;;;;;9.20;6.15;;;11.80;50.50;;;;;;5070888;28;20641;-67
2021/05/04 05:16:40;;;;;;;11.35;6.45;;;11.90;49.50;;;;;;5069978;28;20034;-67
2021/05/04 05:19:06;;;;;;;8.57;5.53;;;11.90;50.20;;;;;;5071560;28;20024;-66
2021/05/04 05:21:34;;;;;;;9.23;6.05;;;12.00;48.10;;;;;;5072718;28;20387;-67
2021/05/04 05:24:00;;;;;;;8.40;6.10;;;11.90;48.60;;;;;;5072626;28;20111;-68
2021/05/04 05:26:26;;;;;;;8.32;5.50;;;11.70;50.10;;;;;;5072362;28;20066;-69
2021/05/04 05:28:54;;;;;;;9.52;6.15;;;11.80;48.70;;;;;;5072607;28;20020;-67
2021/05/04 05:31:20;;;;;;;7.93;5.70;;;11.70;48.10;;;;;;5072226;28;20074;-68
2021/05/04 05:33:46;;;;;;;8.70;5.28;;;11.90;48.40;;;;;;5072396;28;20073;-67
2021/05/04 05:36:12;;;;;;;8.88;5.53;;;12.00;48.10;;;;;;5072098;28;20017;-68
2021/05/04 05:38:37;;;;;;;7.90;6.00;;;12.00;47.40;;;;;;5070677;28;20024;-67
2021/05/04 05:41:03;;;;;;;9.60;5.82;;;12.10;48.90;;;;;;5072391;28;20020;-69
2021/05/04 05:43:29;;;;;;;7.75;5.22;;;12.20;49.50;;;;;;5072240;28;20028;-68
2021/05/04 05:45:54;;;;;;;8.73;4.93;;;12.20;47.90;;;;;;5071488;28;20024;-68
2021/05/04 05:48:20;;;;;;;9.70;5.25;;;12.30;48.60;;;;;;5071673;28;20043;-67
2021/05/04 05:50:45;;;;;;;9.00;5.80;;;12.30;47.50;;;;;;5063341;28;20341;-67
2021/05/04 05:53:11;;;;;;;7.35;5.15;;;12.40;48.70;;;;;;5031872;28;20022;-67
2021/05/04 05:55:37;;;;;;;8.70;4.88;;;12.30;48.00;;;;;;5032026;28;20067;-67
2021/05/04 05:58:03;;;;;;;7.53;4.93;;;12.30;47.40;;;;;;5031872;28;20049;-68
2021/05/04 06:00:28;;;;;;;7.82;4.72;;;12.30;47.80;;;;;;5030935;28;20028;-68
2021/05/04 06:02:54;;;;;;;4.75;4.25;;;12.40;47.40;;;;;;5032449;28;20493;-68
2021/05/04 06:05:20;;;;;;;6.68;4.40;;;12.50;46.40;;;;;;5032150;28;20025;-68
2021/05/04 06:07:45;;;;;;;10.48;5.20;;;12.50;48.50;;;;;;5031564;28;20030;-68
2021/05/04 06:10:12;;;;;;;7.22;4.80;;;12.50;48.00;;;;;;5029801;28;20027;-68
2021/05/04 06:12:38;;;;;;;7.20;5.03;;;12.70;48.40;;;;;;5032077;28;20018;-68
2021/05/04 06:15:04;;;;;;;6.90;4.32;;;12.70;47.70;;;;;;5030568;28;20048;-68
2021/05/04 06:17:30;;;;;;;11.75;5.50;;;12.80;48.30;;;;;;5043138;28;20028;-69
2021/05/04 06:19:55;;;;;;;6.63;4.82;;;12.90;47.40;;;;;;5050844;28;20074;-67
2021/05/04 06:22:21;;;;;;;9.48;4.97;;;13.00;46.20;;;;;;5049201;28;20107;-67
2021/05/04 06:24:47;;;;;;;6.45;4.65;;;13.00;46.60;;;;;;5050327;28;20080;-67
2021/05/04 06:27:13;;;;;;;7.40;4.75;;;13.10;46.10;;;;;;5049824;28;20033;-67
2021/05/04 06:29:39;;;;;;;11.20;4.30;;;13.30;47.60;;;;;;5051253;28;20033;-68
2021/05/04 06:32:13;;;;;;;6.28;4.68;;;13.20;46.20;;;;;;5051448;28;20025;-67
2021/05/04 06:34:39;;;;;;;5.57;4.13;;;13.20;48.20;;;;;;5051693;28;20435;-68
2021/05/04 06:37:04;;;;;;;6.63;4.70;;;13.10;45.20;;;;;;5051130;28;20017;-68
2021/05/04 06:39:30;;;;;;;7.28;4.78;;;13.20;47.70;;;;;;5050178;28;20399;-67
2021/05/04 06:41:56;;;;;;;7.15;4.50;;;13.20;47.80;;;;;;5051611;28;20100;-67
2021/05/04 06:44:22;;;;;;;58.47;38.95;;;13.20;45.90;;;;;;5050417;28;20117;-67
2021/05/04 06:46:48;;;;;;;89.82;46.20;;;13.10;47.20;;;;;;5035008;28;20028;-67
2021/05/04 06:49:13;;;;;;;91.32;47.10;;;13.30;46.50;;;;;;5051224;28;20033;-68
2021/05/04 06:51:39;;;;;;;13.70;7.15;;;13.30;46.80;;;;;;5051250;28;20036;-67
2021/05/04 06:54:04;;;;;;;186.20;116.13;;;13.30;45.10;;;;;;5050064;28;20447;-68
2021/05/04 06:56:30;;;;;;;100.45;55.22;;;13.30;47.30;;;;;;5051009;28;20420;-68
2021/05/04 06:58:56;;;;;;;63.25;33.58;;;13.30;46.40;;;;;;5051354;28;20021;-68
2021/05/04 07:01:21;;;;;;;48.58;27.92;;;13.40;46.60;;;;;;5051463;28;20025;-69
2021/05/04 07:03:47;;;;;;;42.15;23.42;;;13.50;46.90;;;;;;5050026;28;20057;-69
2021/05/04 07:06:13;;;;;;;59.28;34.45;;;13.60;45.90;;;;;;5050780;28;20028;-66
2021/05/04 07:08:38;;;;;;;29.02;16.40;;;13.60;46.40;;;;;;5050885;28;20025;-68
2021/05/04 07:11:06;;;;;;;48.90;27.83;;;13.60;45.00;;;;;;5050947;28;20021;-68
2021/05/04 07:13:34;;;;;;;22.65;14.65;;;13.70;45.70;;;;;;5051151;28;20386;-69
2021/05/04 07:15:59;;;;;;;32.40;18.25;;;13.80;44.60;;;;;;5055066;28;20115;-69
2021/05/04 07:18:27;;;;;;;46.78;27.67;;;14.00;44.30;;;;;;5052536;28;20474;-68
2021/05/04 07:20:53;;;;;;;34.58;20.33;;;14.00;44.90;;;;;;5051212;28;20017;-69
2021/05/04 07:23:19;;;;;;;53.65;31.15;;;14.10;44.70;;;;;;5053936;28;20502;-69
2021/05/04 07:25:44;;;;;;;41.20;24.13;;;14.10;45.10;;;;;;5053483;28;20051;-68
2021/05/04 07:28:10;;;;;;;31.27;18.20;;;14.20;44.40;;;;;;5054699;28;20024;-69
2021/05/04 07:30:42;;;;;;;26.02;14.23;;;14.20;43.70;;;;;;5053602;28;20035;-68
2021/05/04 07:33:08;;;;;;;52.75;30.17;;;14.20;43.70;;;;;;5055318;28;20083;-69
2021/05/04 07:35:36;;;;;;;31.27;19.10;;;14.40;44.70;;;;;;5054939;28;20025;-67
2021/05/04 07:38:01;;;;;;;35.20;20.20;;;14.60;42.90;;;;;;5055787;28;20029;-69
2021/05/04 07:40:27;;;;;;;42.60;25.67;;;14.90;43.10;;;;;;5055675;28;20033;-68
2021/05/04 07:42:54;;;;;;;21.10;12.48;;;15.10;42.90;;;;;;5054941;28;20060;-69
2021/05/04 07:45:19;;;;;;;26.20;15.73;;;15.20;40.70;;;;;;5054790;28;20021;-68
2021/05/04 07:47:50;;;;;;;33.72;20.20;;;15.20;41.70;;;;;;5054455;28;20033;-68
2021/05/04 07:50:16;;;;;;;37.75;22.45;;;15.20;41.80;;;;;;5054660;28;20051;-69
2021/05/04 07:52:42;;;;;;;59.22;31.38;;;15.10;41.60;;;;;;5054799;28;20066;-68
2021/05/04 07:55:10;;;;;;;40.92;24.38;;;15.00;43.60;;;;;;5054495;28;20060;-68
2021/05/04 07:57:40;;;;;;;19.13;10.50;;;15.10;42.90;;;;;;5053085;28;20021;-68
2021/05/04 08:00:06;;;;;;;32.05;18.40;;;15.40;40.40;;;;;;5054782;28;20025;-67
2021/05/04 08:02:34;;;;;;;44.50;27.08;;;15.50;41.70;;;;;;5053400;28;20520;-67
2021/05/04 08:05:00;;;;;;;14.43;9.02;;;15.60;42.30;;;;;;5054544;28;20017;-68
2021/05/04 08:07:25;;;;;;;20.20;12.40;;;15.50;40.70;;;;;;5053864;28;20032;-69
2021/05/04 08:09:51;;;;;;;30.83;19.00;;;15.70;40.70;;;;;;5054160;28;20021;-67
2021/05/04 08:12:17;;;;;;;39.47;23.05;;;15.80;40.80;;;;;;5054158;28;20021;-69
2021/05/04 08:14:44;;;;;;;27.15;16.77;;;15.90;40.50;;;;;;5054144;28;20029;-67
2021/05/04 08:17:16;;;;;;;13.52;9.07;;;15.90;39.80;;;;;;5054220;28;20017;-66
2021/05/04 08:19:41;;;;;;;34.95;21.15;;;15.70;39.50;;;;;;5054279;28;20398;-66
2021/05/04 08:22:07;;;;;;;11.25;7.22;;;15.70;40.40;;;;;;5052709;28;20017;-67
2021/05/04 08:24:33;;;;;;;31.80;18.42;;;15.70;39.70;;;;;;5053206;28;20027;-67
2021/05/04 08:26:59;;;;;;;28.88;17.27;;;15.60;41.10;;;;;;5052482;28;20029;-67
2021/05/04 08:29:24;;;;;;;6.18;4.22;;;15.80;40.40;;;;;;5052300;28;20548;-67
2021/05/04 08:31:50;;;;;;;23.52;14.55;;;15.90;38.80;;;;;;5052459;28;20021;-66
2021/05/04 08:34:15;;;;;;;10.00;5.32;;;15.70;40.10;;;;;;5053300;28;20107;-67
2021/05/04 08:36:41;;;;;;;29.00;18.17;;;16.00;39.30;;;;;;5053323;28;20104;-67
2021/05/04 08:39:07;;;;;;;18.00;10.52;;;16.10;41.10;;;;;;5053479;28;20041;-67
2021/05/04 08:41:34;;;;;;;24.90;15.52;;;16.30;39.10;;;;;;5053674;28;20143;-68
2021/05/04 08:44:00;;;;;;;12.75;7.50;;;16.50;39.60;;;;;;5055544;28;20028;-67
2021/05/04 08:46:27;;;;;;;18.38;10.48;;;16.60;38.20;;;;;;5057873;28;20029;-68
2021/05/04 08:48:53;;;;;;;14.68;7.63;;;16.50;38.40;;;;;;5059151;28;20087;-67
2021/05/04 08:51:18;;;;;;;14.07;9.38;;;16.60;37.10;;;;;;5057352;28;20483;-67
2021/05/04 08:53:45;;;;;;;13.10;8.52;;;16.50;37.60;;;;;;5053535;28;20032;-67
2021/05/04 08:56:15;;;;;;;9.50;3.97;;;16.50;36.70;;;;;;5052927;28;20435;-66
2021/05/04 08:58:41;;;;;;;25.48;15.60;;;16.60;36.80;;;;;;5053489;28;20021;-67
2021/05/04 09:01:07;;;;;;;5.38;3.47;;;16.60;37.20;;;;;;5052002;28;20499;-67
2021/05/04 09:03:36;;;;;;;12.18;8.15;;;16.70;36.20;;;;;;5052005;28;20059;-68
2021/05/04 09:06:04;;;;;;;19.23;10.43;;;16.80;37.00;;;;;;5053257;28;20379;-67
2021/05/04 09:11:35;;;;;;;14.40;8.95;;;16.80;38.00;;;;;;5053264;28;20079;-70
2021/05/04 09:16:34;;;;;;;72.80;46.45;;;17.30;37.70;;;;;;5053118;28;20027;-68
2021/05/04 09:19:10;;;;;;;105.32;74.65;;;17.50;37.00;;;;;;5053074;28;20036;-68
2021/05/04 09:21:38;;;;;;;61.13;40.05;;;17.40;38.20;;;;;;5053210;28;20020;-69
2021/05/04 09:24:27;;;;;;;38.58;22.67;;;17.50;37.40;;;;;;5053191;28;20040;-69
2021/05/04 09:27:16;;;;;;;47.42;32.65;;;17.50;36.70;;;;;;5052939;28;20021;-67
2021/05/04 09:29:52;;;;;;;26.75;18.23;;;17.70;38.40;;;;;;5037787;28;20065;-67
2021/05/04 09:32:32;;;;;;;24.70;13.93;;;17.80;36.90;;;;;;5052823;28;20021;-67
2021/05/04 09:34:59;;;;;;;24.65;15.40;;;17.80;36.30;;;;;;5052493;28;20056;-70
2021/05/04 09:37:30;;;;;;;45.00;30.08;;;17.90;37.10;;;;;;5052085;28;20073;-69
2021/05/04 09:40:16;;;;;;;47.58;31.80;;;17.80;37.90;;;;;;5039482;28;20093;-68
2021/05/04 09:42:42;;;;;;;23.63;15.43;;;17.70;38.30;;;;;;5072643;28;20027;-67
2021/05/04 09:45:19;;;;;;;46.08;29.58;;;17.70;37.40;;;;;;5071895;28;20025;-70
2021/05/04 09:47:47;;;;;;;161.38;102.38;;;17.50;40.40;;;;;;5071255;28;20040;-70
2021/05/04 09:50:13;;;;;;;103.57;40.60;;;17.30;42.60;;;;;;5071317;28;20111;-70
2021/05/04 09:52:40;;;;;;;36.63;16.52;;;17.30;42.10;;;;;;5053462;28;20111;-70
2021/05/04 09:55:15;;;;;;;88.88;49.63;;;17.20;41.80;;;;;;5052470;28;20029;-70
2021/05/04 09:57:45;;;;;;;69.80;41.05;;;16.70;47.00;;;;;;5052358;28;20035;-70
2021/05/04 10:00:16;;;;;;;46.38;26.70;;;16.40;47.40;;;;;;5052361;28;20552;-71
2021/05/04 10:02:43;;;;;;;22.80;14.15;;;16.10;45.90;;;;;;5050819;28;20117;-70
2021/05/04 10:05:14;;;;;;;18.10;10.35;;;16.00;48.60;;;;;;5045258;28;20033;-70
2021/05/04 10:07:40;;;;;;;;;;;16.00;47.80;;;;;;5052490;28;20055;-69
2021/05/04 10:10:08;;;;;;;11.73;7.47;;;15.80;46.80;;;;;;5052089;28;19904;-70
2021/05/04 10:12:36;;;;;;;16.98;9.75;;;15.60;46.30;;;;;;5051806;28;20104;-68
2021/05/04 10:15:04;;;;;;;28.73;17.55;;;15.50;49.20;;;;;;5052040;28;20484;-69
2021/05/04 10:17:34;;;;;;;11.07;7.32;;;15.50;50.10;;;;;;5050432;28;20122;-70
2021/05/04 10:20:02;;;;;;;13.70;7.32;;;15.40;49.50;;;;;;5051940;28;20082;-68
2021/05/04 10:22:28;;;;;;;13.32;7.72;;;15.50;49.70;;;;;;5033915;28;20021;-69
2021/05/04 10:24:55;;;;;;;6.45;2.80;;;15.50;50.50;;;;;;5051913;28;20391;-68
2021/05/04 10:27:21;;;;;;;23.92;12.63;;;15.40;51.60;;;;;;5051674;28;20481;-70
2021/05/04 10:29:51;;;;;;;17.67;8.13;;;15.30;52.70;;;;;;5051602;28;20090;-69
2021/05/04 10:32:49;;;;;;;6.68;4.68;;;15.20;55.30;;;;;;5051794;28;20090;-69
2021/05/04 10:35:32;;;;;;;11.68;7.03;;;15.10;56.20;;;;;;5050957;28;20603;-69
2021/05/04 10:38:00;;;;;;;11.73;5.22;;;15.10;54.20;;;;;;5050121;28;20025;-67
2021/05/04 10:40:30;;;;;;;11.13;7.43;;;15.10;52.10;;;;;;5050691;28;20074;-68
2021/05/04 10:43:02;;;;;;;15.60;9.02;;;15.20;50.70;;;;;;5050872;28;20017;-68
2021/05/04 10:45:41;;;;;;;12.85;8.02;;;15.50;50.00;;;;;;5050872;28;20025;-69
2021/05/04 10:48:08;;;;;;;7.20;4.63;;;15.60;48.00;;;;;;5050444;28;20454;-68
2021/05/04 10:50:47;;;;;;;9.88;5.97;;;15.80;46.70;;;;;;5049810;28;20025;-69
2021/05/04 10:53:14;;;;;;;2.05;1.80;;;16.00;46.50;;;;;;5050409;28;20059;-69
2021/05/04 10:55:52;;;;;;;3.92;2.70;;;16.20;44.20;;;;;;5050783;28;20033;-69
2021/05/04 10:58:18;;;;;;;10.60;5.10;;;16.40;44.60;;;;;;5056585;28;20021;-67
2021/05/04 11:00:53;;;;;;;4.97;2.80;;;16.60;43.90;;;;;;5057201;28;20391;-68
2021/05/04 11:03:31;;;;;;;12.52;7.28;;;16.50;41.70;;;;;;5057161;28;20028;-68
2021/05/04 11:06:08;;;;;;;11.05;5.85;;;16.60;42.60;;;;;;5056843;28;20031;-69
2021/05/04 11:11:39;;;;;;;9.45;5.15;;;16.50;41.20;;;;;;5057289;28;20116;-69
2021/05/04 11:14:19;;;;;;;13.27;7.25;;;16.50;42.70;;;;;;5056852;28;20044;-68
2021/05/04 11:16:52;;;;;;;9.18;4.95;;;16.30;41.90;;;;;;5055135;28;20108;-69
2021/05/04 11:19:34;;;;;;;9.40;3.92;;;16.40;41.80;;;;;;5055754;28;20391;-68
2021/05/04 11:21:59;;;;;;;5.78;3.65;;;16.30;41.80;;;;;;5057003;28;20048;-69
2021/05/04 11:24:34;;;;;;;7.10;3.70;;;16.30;41.90;;;;;;5056835;28;20052;-68
2021/05/04 11:27:05;;;;;;;2.22;1.67;;;16.50;42.20;;;;;;5056761;28;20588;-68
2021/05/04 11:29:34;;;;;;;10.77;4.32;;;16.70;41.20;;;;;;5056962;28;20086;-69
2021/05/04 11:32:17;;;;;;;7.45;4.28;;;16.80;41.30;;;;;;5057487;28;20486;-68
2021/05/04 11:34:51;;;;;;;7.32;3.28;;;16.90;41.00;;;;;;5057891;28;20372;-68
2021/05/04 11:37:22;;;;;;;6.95;4.35;;;16.90;40.10;;;;;;5056325;28;20473;-67
2021/05/04 11:39:56;;;;;;;5.43;3.50;;;17.00;40.40;;;;;;5057653;28;20082;-67
2021/05/04 11:42:35;;;;;;;8.15;3.63;;;17.00;39.60;;;;;;5056039;28;20031;-67
2021/05/04 11:45:05;;;;;;;6.43;4.13;;;17.10;39.10;;;;;;5056286;28;20028;-68
2021/05/04 11:47:31;;;;;;;5.55;2.92;;;17.10;39.20;;;;;;5057610;28;20044;-67
2021/05/04 11:50:10;;;;;;;192.85;144.93;;;17.50;38.10;;;;;;5057638;28;20039;-71
2021/05/04 11:52:37;;;;;;;199.95;116.72;;;17.90;38.70;;;;;;5057524;28;20032;-69
2021/05/04 11:55:23;;;;;;;11.90;5.70;;;18.40;37.90;;;;;;5057965;28;20035;-70
2021/05/04 11:58:01;;;;;;;11.93;4.93;;;18.90;35.70;;;;;;5057500;28;20518;-70
2021/05/04 12:00:29;;;;;;;12.98;7.68;;;19.30;34.50;;;;;;5056423;28;20027;-71
2021/05/04 12:02:54;;;;;;;11.32;6.32;;;19.50;35.20;;;;;;5057607;28;20036;-72
2021/05/04 12:05:24;;;;;;;16.10;9.23;;;19.50;34.40;;;;;;5057636;28;20024;-69
2021/05/04 12:07:50;;;;;;;15.32;8.63;;;19.50;35.00;;;;;;5055579;28;20029;-70
2021/05/04 12:10:15;;;;;;;11.45;6.20;;;19.40;35.00;;;;;;5053431;28;20335;-69
2021/05/04 12:13:05;;;;;;;4.97;3.28;;;19.30;34.90;;;;;;5054498;28;20028;-69
2021/05/04 12:15:37;;;;;;;5.50;3.00;;;19.10;35.20;;;;;;5054277;28;20029;-70
2021/05/04 12:18:06;;;;;;;26.88;19.92;;;19.10;34.20;;;;;;5053987;28;20413;-70
2021/05/04 12:20:39;;;;;;;41.70;27.50;;;19.10;34.80;;;;;;5052780;28;20021;-69
2021/05/04 12:23:06;;;;;;;29.77;20.55;;;19.10;35.70;;;;;;5052820;28;20029;-69
2021/05/04 12:25:56;;;;;;;12.32;5.53;;;18.90;36.70;;;;;;5053199;28;20063;-69
2021/05/04 12:28:25;;;;;;;9.60;6.15;;;18.60;34.80;;;;;;5054197;28;20075;-69
2021/05/04 12:30:54;;;;;;;5.57;3.20;;;18.40;35.20;;;;;;5054139;28;20025;-70
2021/05/04 12:33:20;;;;;;;45.53;31.98;;;18.30;34.90;;;;;;5054161;28;20041;-70
2021/05/04 12:36:35;;;;;;;32.95;21.52;;;18.20;35.20;;;;;;5053842;28;20107;-70
2021/05/04 12:41:16;;;;;;;29.98;19.80;;;17.90;37.80;;;;;;5052815;28;20506;-70
2021/05/04 12:44:12;;;;;;;12.32;7.70;;;17.70;37.70;;;;;;5053794;28;20025;-71
2021/05/04 12:46:46;;;;;;;18.63;10.48;;;17.60;37.50;;;;;;5045759;28;20364;-69
2021/05/04 12:49:12;;;;;;;7.82;4.10;;;17.70;37.00;;;;;;5054003;28;20428;-70
2021/05/04 12:51:43;;;;;;;13.82;5.93;;;17.70;37.10;;;;;;5053345;28;20021;-69
2021/05/04 12:54:15;;;;;;;17.55;10.55;;;17.70;37.30;;;;;;5053662;28;20052;-70
2021/05/04 12:56:41;;;;;;;6.53;3.17;;;17.80;39.50;;;;;;5053215;28;20028;-68
2021/05/04 12:59:11;;;;;;;7.22;3.72;;;17.80;36.40;;;;;;5053098;28;20143;-68